sensor_id;sensor_type;location;lat;lon;timestamp;temperature;humidity
52765;DHT22;38650;44.536;18.664;2023-07-31T00:01:47;23.60;99.90
52765;DHT22;38650;44.536;18.664;2023-07-31T00:04:13;23.60;99.90
52765;DHT22;38650;44.536;18.664;2023-07-31T00:06:38;23.60;99.90
52765;DHT22;38650;44.536;18.664;2023-07-31T00:09:04;23.40;99.90
52765;DHT22;38650;44.536;18.664;2023-07-31T00:11:29;23.40;99.90
52765;DHT22;38650;44.536;18.664;2023-07-31T00:13:55;23.40;99.90
52765;DHT22;38650;44.536;18.664;2023-07-31T00:16:21;23.40;99.90
52765;DHT22;38650;44.536;18.664;2023-07-31T00:18:46;23.30;99.90
52765;DHT22;38650;44.536;18.664;2023-07-31T00:21:12;23.30;99.90
52765;DHT22;38650;44.536;18.664;2023-07-31T00:23:37;23.30;99.90
52765;DHT22;38650;44.536;18.664;2023-07-31T00:26:03;23.30;99.90
52765;DHT22;38650;44.536;18.664;2023-07-31T00:28:28;23.30;99.90
52765;DHT22;38650;44.536;18.664;2023-07-31T00:30:54;23.20;99.90
52765;DHT22;38650;44.536;18.664;2023-07-31T00:33:20;23.20;99.90
52765;DHT22;38650;44.536;18.664;2023-07-31T00:35:45;23.20;99.90
52765;DHT22;38650;44.536;18.664;2023-07-31T00:38:11;23.00;99.90
52765;DHT22;38650;44.536;18.664;2023-07-31T00:40:36;23.00;99.90
52765;DHT22;38650;44.536;18.664;2023-07-31T00:43:03;23.00;99.90
52765;DHT22;38650;44.536;18.664;2023-07-31T00:45:28;22.80;99.90
52765;DHT22;38650;44.536;18.664;2023-07-31T00:47:54;22.70;99.90
52765;DHT22;38650;44.536;18.664;2023-07-31T00:50:20;22.70;99.90
52765;DHT22;38650;44.536;18.664;2023-07-31T00:52:45;22.60;99.90
52765;DHT22;38650;44.536;18.664;2023-07-31T00:55:11;22.60;99.90
52765;DHT22;38650;44.536;18.664;2023-07-31T00:57:36;22.40;99.90
52765;DHT22;38650;44.536;18.664;2023-07-31T01:00:03;22.40;99.90
52765;DHT22;38650;44.536;18.664;2023-07-31T01:02:29;22.40;99.90
52765;DHT22;38650;44.536;18.664;2023-07-31T01:04:54;22.50;99.90
52765;DHT22;38650;44.536;18.664;2023-07-31T01:07:22;22.50;99.90
52765;DHT22;38650;44.536;18.664;2023-07-31T01:12:20;22.40;99.90
52765;DHT22;38650;44.536;18.664;2023-07-31T01:14:54;22.40;99.90
52765;DHT22;38650;44.536;18.664;2023-07-31T01:17:27;22.40;99.90
52765;DHT22;38650;44.536;18.664;2023-07-31T01:19:53;22.50;99.90
52765;DHT22;38650;44.536;18.664;2023-07-31T01:22:26;22.50;99.90
52765;DHT22;38650;44.536;18.664;2023-07-31T01:27:30;22.50;99.90
52765;DHT22;38650;44.536;18.664;2023-07-31T01:30:09;22.40;99.90
52765;DHT22;38650;44.536;18.664;2023-07-31T01:32:40;22.40;99.90
52765;DHT22;38650;44.536;18.664;2023-07-31T01:35:06;22.40;99.90
52765;DHT22;38650;44.536;18.664;2023-07-31T01:37:32;22.30;99.90
52765;DHT22;38650;44.536;18.664;2023-07-31T01:39:57;22.30;99.90
52765;DHT22;38650;44.536;18.664;2023-07-31T01:42:23;22.40;99.90
52765;DHT22;38650;44.536;18.664;2023-07-31T01:44:48;22.40;99.90
52765;DHT22;38650;44.536;18.664;2023-07-31T01:47:14;22.40;99.90
52765;DHT22;38650;44.536;18.664;2023-07-31T01:49:40;22.30;99.90
52765;DHT22;38650;44.536;18.664;2023-07-31T01:52:05;22.30;99.90
52765;DHT22;38650;44.536;18.664;2023-07-31T01:54:31;22.30;99.90
52765;DHT22;38650;44.536;18.664;2023-07-31T01:56:56;22.20;99.90
52765;DHT22;38650;44.536;18.664;2023-07-31T01:59:22;22.20;99.90
52765;DHT22;38650;44.536;18.664;2023-07-31T02:01:48;22.20;99.90
52765;DHT22;38650;44.536;18.664;2023-07-31T02:04:13;22.20;99.90
52765;DHT22;38650;44.536;18.664;2023-07-31T02:06:39;22.20;99.90
52765;DHT22;38650;44.536;18.664;2023-07-31T02:09:04;22.20;99.90
52765;DHT22;38650;44.536;18.664;2023-07-31T02:11:30;22.20;99.90
52765;DHT22;38650;44.536;18.664;2023-07-31T02:13:56;22.20;99.90
52765;DHT22;38650;44.536;18.664;2023-07-31T02:16:21;22.20;99.90
52765;DHT22;38650;44.536;18.664;2023-07-31T02:18:47;22.20;99.90
52765;DHT22;38650;44.536;18.664;2023-07-31T02:21:12;22.10;99.90
52765;DHT22;38650;44.536;18.664;2023-07-31T02:23:38;22.20;99.90
52765;DHT22;38650;44.536;18.664;2023-07-31T02:26:03;22.10;99.90
52765;DHT22;38650;44.536;18.664;2023-07-31T02:28:29;22.10;99.90
52765;DHT22;38650;44.536;18.664;2023-07-31T02:30:55;22.20;99.90
52765;DHT22;38650;44.536;18.664;2023-07-31T02:33:20;22.10;99.90
52765;DHT22;38650;44.536;18.664;2023-07-31T02:35:46;22.00;99.90
52765;DHT22;38650;44.536;18.664;2023-07-31T02:38:11;22.00;99.90
52765;DHT22;38650;44.536;18.664;2023-07-31T02:40:37;22.00;99.90
52765;DHT22;38650;44.536;18.664;2023-07-31T02:43:04;22.00;99.90
52765;DHT22;38650;44.536;18.664;2023-07-31T02:45:29;22.00;99.90
52765;DHT22;38650;44.536;18.664;2023-07-31T02:47:55;22.10;99.90
52765;DHT22;38650;44.536;18.664;2023-07-31T02:50:20;22.00;99.90
52765;DHT22;38650;44.536;18.664;2023-07-31T02:52:46;22.00;99.90
52765;DHT22;38650;44.536;18.664;2023-07-31T02:55:11;21.90;99.90
52765;DHT22;38650;44.536;18.664;2023-07-31T02:57:37;21.90;99.90
52765;DHT22;38650;44.536;18.664;2023-07-31T03:00:02;21.90;99.90
52765;DHT22;38650;44.536;18.664;2023-07-31T03:02:31;21.90;99.90
52765;DHT22;38650;44.536;18.664;2023-07-31T03:04:56;21.90;99.90
52765;DHT22;38650;44.536;18.664;2023-07-31T03:07:22;21.90;99.90
52765;DHT22;38650;44.536;18.664;2023-07-31T03:09:48;21.90;99.90
52765;DHT22;38650;44.536;18.664;2023-07-31T03:12:13;21.80;99.90
52765;DHT22;38650;44.536;18.664;2023-07-31T03:14:39;21.80;99.90
52765;DHT22;38650;44.536;18.664;2023-07-31T03:17:04;21.80;99.90
52765;DHT22;38650;44.536;18.664;2023-07-31T03:19:30;21.80;99.90
52765;DHT22;38650;44.536;18.664;2023-07-31T03:21:56;21.80;99.90
52765;DHT22;38650;44.536;18.664;2023-07-31T03:24:21;21.80;99.90
52765;DHT22;38650;44.536;18.664;2023-07-31T03:26:47;21.80;99.90
52765;DHT22;38650;44.536;18.664;2023-07-31T03:29:13;21.80;99.90
52765;DHT22;38650;44.536;18.664;2023-07-31T03:31:38;21.80;99.90
52765;DHT22;38650;44.536;18.664;2023-07-31T03:34:04;21.80;99.90
52765;DHT22;38650;44.536;18.664;2023-07-31T03:36:29;21.70;99.90
52765;DHT22;38650;44.536;18.664;2023-07-31T03:38:55;21.70;99.90
52765;DHT22;38650;44.536;18.664;2023-07-31T03:41:20;21.70;99.90
52765;DHT22;38650;44.536;18.664;2023-07-31T03:43:49;21.70;99.90
52765;DHT22;38650;44.536;18.664;2023-07-31T03:46:16;21.80;99.90
52765;DHT22;38650;44.536;18.664;2023-07-31T03:48:42;21.80;99.90
52765;DHT22;38650;44.536;18.664;2023-07-31T03:51:07;21.80;99.90
52765;DHT22;38650;44.536;18.664;2023-07-31T03:53:33;21.80;99.90
52765;DHT22;38650;44.536;18.664;2023-07-31T03:55:58;21.80;99.90
52765;DHT22;38650;44.536;18.664;2023-07-31T03:58:24;21.90;99.90
52765;DHT22;38650;44.536;18.664;2023-07-31T04:00:49;21.90;99.90
52765;DHT22;38650;44.536;18.664;2023-07-31T04:03:15;21.90;99.90
52765;DHT22;38650;44.536;18.664;2023-07-31T04:05:41;21.90;99.90
52765;DHT22;38650;44.536;18.664;2023-07-31T04:08:07;22.00;99.90
52765;DHT22;38650;44.536;18.664;2023-07-31T04:10:33;22.00;99.90
52765;DHT22;38650;44.536;18.664;2023-07-31T04:12:59;22.00;99.90
52765;DHT22;38650;44.536;18.664;2023-07-31T04:15:25;21.90;99.90
52765;DHT22;38650;44.536;18.664;2023-07-31T04:17:51;21.90;99.90
52765;DHT22;38650;44.536;18.664;2023-07-31T04:20:17;22.00;99.90
52765;DHT22;38650;44.536;18.664;2023-07-31T04:22:42;22.00;99.90
52765;DHT22;38650;44.536;18.664;2023-07-31T04:25:08;22.00;99.90
52765;DHT22;38650;44.536;18.664;2023-07-31T04:27:33;22.00;99.90
52765;DHT22;38650;44.536;18.664;2023-07-31T04:29:59;22.00;99.90
52765;DHT22;38650;44.536;18.664;2023-07-31T04:32:24;22.10;99.90
52765;DHT22;38650;44.536;18.664;2023-07-31T04:34:50;22.10;99.90
52765;DHT22;38650;44.536;18.664;2023-07-31T04:37:16;22.20;99.90
52765;DHT22;38650;44.536;18.664;2023-07-31T04:39:41;22.30;99.90
52765;DHT22;38650;44.536;18.664;2023-07-31T04:42:07;22.40;99.90
52765;DHT22;38650;44.536;18.664;2023-07-31T04:44:32;22.40;99.90
52765;DHT22;38650;44.536;18.664;2023-07-31T04:46:58;22.40;99.90
52765;DHT22;38650;44.536;18.664;2023-07-31T04:49:23;22.50;99.90
52765;DHT22;38650;44.536;18.664;2023-07-31T04:51:49;22.50;99.90
52765;DHT22;38650;44.536;18.664;2023-07-31T04:54:14;22.50;99.90
52765;DHT22;38650;44.536;18.664;2023-07-31T04:56:40;22.60;99.90
52765;DHT22;38650;44.536;18.664;2023-07-31T04:59:06;22.60;99.90
52765;DHT22;38650;44.536;18.664;2023-07-31T05:01:32;22.70;99.90
52765;DHT22;38650;44.536;18.664;2023-07-31T05:03:57;22.70;99.90
52765;DHT22;38650;44.536;18.664;2023-07-31T05:06:23;22.80;99.90
52765;DHT22;38650;44.536;18.664;2023-07-31T05:08:48;22.80;99.90
52765;DHT22;38650;44.536;18.664;2023-07-31T05:11:14;22.90;99.90
52765;DHT22;38650;44.536;18.664;2023-07-31T05:13:39;22.90;99.90
52765;DHT22;38650;44.536;18.664;2023-07-31T05:16:05;22.80;99.90
52765;DHT22;38650;44.536;18.664;2023-07-31T05:18:30;22.80;99.90
52765;DHT22;38650;44.536;18.664;2023-07-31T05:20:56;22.80;99.90
52765;DHT22;38650;44.536;18.664;2023-07-31T05:23:21;22.70;99.90
52765;DHT22;38650;44.536;18.664;2023-07-31T05:25:47;22.70;99.90
52765;DHT22;38650;44.536;18.664;2023-07-31T05:28:13;22.80;99.90
52765;DHT22;38650;44.536;18.664;2023-07-31T05:30:38;22.80;99.90
52765;DHT22;38650;44.536;18.664;2023-07-31T05:33:04;22.80;99.90
52765;DHT22;38650;44.536;18.664;2023-07-31T05:35:29;22.90;99.90
52765;DHT22;38650;44.536;18.664;2023-07-31T05:37:55;23.00;99.90
52765;DHT22;38650;44.536;18.664;2023-07-31T05:40:20;23.10;99.90
52765;DHT22;38650;44.536;18.664;2023-07-31T05:42:46;23.20;99.90
52765;DHT22;38650;44.536;18.664;2023-07-31T05:45:11;23.20;99.90
52765;DHT22;38650;44.536;18.664;2023-07-31T05:47:39;23.30;99.90
52765;DHT22;38650;44.536;18.664;2023-07-31T05:50:04;23.40;99.90
52765;DHT22;38650;44.536;18.664;2023-07-31T05:52:30;23.50;99.90
52765;DHT22;38650;44.536;18.664;2023-07-31T05:54:56;23.40;99.90
52765;DHT22;38650;44.536;18.664;2023-07-31T05:57:21;23.40;99.90
52765;DHT22;38650;44.536;18.664;2023-07-31T05:59:47;23.40;99.90
52765;DHT22;38650;44.536;18.664;2023-07-31T06:02:12;23.60;99.90
52765;DHT22;38650;44.536;18.664;2023-07-31T06:04:38;23.70;99.90
52765;DHT22;38650;44.536;18.664;2023-07-31T06:07:04;23.80;99.90
52765;DHT22;38650;44.536;18.664;2023-07-31T06:09:30;24.10;99.90
52765;DHT22;38650;44.536;18.664;2023-07-31T06:11:55;24.20;99.90
52765;DHT22;38650;44.536;18.664;2023-07-31T06:14:21;24.00;99.90
52765;DHT22;38650;44.536;18.664;2023-07-31T06:16:46;23.90;99.90
52765;DHT22;38650;44.536;18.664;2023-07-31T06:19:12;24.00;99.90
52765;DHT22;38650;44.536;18.664;2023-07-31T06:21:38;24.10;99.90
52765;DHT22;38650;44.536;18.664;2023-07-31T06:24:04;24.30;99.90
52765;DHT22;38650;44.536;18.664;2023-07-31T06:26:30;24.50;99.90
52765;DHT22;38650;44.536;18.664;2023-07-31T06:28:55;24.70;99.90
52765;DHT22;38650;44.536;18.664;2023-07-31T06:31:21;24.70;99.90
52765;DHT22;38650;44.536;18.664;2023-07-31T06:33:48;24.90;99.90
52765;DHT22;38650;44.536;18.664;2023-07-31T06:36:14;25.10;99.90
52765;DHT22;38650;44.536;18.664;2023-07-31T06:38:40;25.30;99.90
52765;DHT22;38650;44.536;18.664;2023-07-31T06:41:05;25.60;99.90
52765;DHT22;38650;44.536;18.664;2023-07-31T06:43:31;25.90;99.90
52765;DHT22;38650;44.536;18.664;2023-07-31T06:45:56;26.20;99.90
52765;DHT22;38650;44.536;18.664;2023-07-31T06:48:22;26.60;99.90
52765;DHT22;38650;44.536;18.664;2023-07-31T06:50:47;26.90;99.90
52765;DHT22;38650;44.536;18.664;2023-07-31T06:53:13;26.80;99.90
52765;DHT22;38650;44.536;18.664;2023-07-31T06:55:38;26.70;98.80
52765;DHT22;38650;44.536;18.664;2023-07-31T06:58:04;26.50;99.00
52765;DHT22;38650;44.536;18.664;2023-07-31T07:00:30;26.40;98.80
52765;DHT22;38650;44.536;18.664;2023-07-31T07:02:55;26.50;99.90
52765;DHT22;38650;44.536;18.664;2023-07-31T07:05:21;26.70;99.50
52765;DHT22;38650;44.536;18.664;2023-07-31T07:07:48;27.00;95.80
52765;DHT22;38650;44.536;18.664;2023-07-31T07:10:14;27.10;95.40
52765;DHT22;38650;44.536;18.664;2023-07-31T07:12:39;27.10;93.00
52765;DHT22;38650;44.536;18.664;2023-07-31T07:15:06;27.00;91.70
52765;DHT22;38650;44.536;18.664;2023-07-31T07:17:31;26.90;91.00
52765;DHT22;38650;44.536;18.664;2023-07-31T07:19:57;27.00;90.50
52765;DHT22;38650;44.536;18.664;2023-07-31T07:22:23;27.20;89.90
52765;DHT22;38650;44.536;18.664;2023-07-31T07:24:48;27.20;91.00
52765;DHT22;38650;44.536;18.664;2023-07-31T07:27:14;27.70;90.40
52765;DHT22;38650;44.536;18.664;2023-07-31T07:29:40;30.00;81.80
52765;DHT22;38650;44.536;18.664;2023-07-31T07:32:05;30.60;76.40
52765;DHT22;38650;44.536;18.664;2023-07-31T07:34:31;31.90;72.60
52765;DHT22;38650;44.536;18.664;2023-07-31T07:36:56;32.00;67.30
52765;DHT22;38650;44.536;18.664;2023-07-31T07:39:22;31.30;68.10
52765;DHT22;38650;44.536;18.664;2023-07-31T07:41:48;30.60;66.60
52765;DHT22;38650;44.536;18.664;2023-07-31T07:44:13;29.90;63.80
52765;DHT22;38650;44.536;18.664;2023-07-31T07:46:39;29.40;64.00
52765;DHT22;38650;44.536;18.664;2023-07-31T07:49:05;29.00;64.90
52765;DHT22;38650;44.536;18.664;2023-07-31T07:51:30;29.40;68.70
52765;DHT22;38650;44.536;18.664;2023-07-31T07:54:00;31.90;65.90
52765;DHT22;38650;44.536;18.664;2023-07-31T07:56:26;34.50;57.20
52765;DHT22;38650;44.536;18.664;2023-07-31T07:58:52;36.50;52.50
52765;DHT22;38650;44.536;18.664;2023-07-31T08:01:18;37.70;44.60
52765;DHT22;38650;44.536;18.664;2023-07-31T08:03:43;38.50;47.10
52765;DHT22;38650;44.536;18.664;2023-07-31T08:06:09;37.80;47.50
52765;DHT22;38650;44.536;18.664;2023-07-31T08:08:35;35.80;49.00
52765;DHT22;38650;44.536;18.664;2023-07-31T08:11:00;35.00;50.10
52765;DHT22;38650;44.536;18.664;2023-07-31T08:13:26;35.20;50.70
52765;DHT22;38650;44.536;18.664;2023-07-31T08:15:52;35.80;49.90
52765;DHT22;38650;44.536;18.664;2023-07-31T08:18:17;36.80;50.10
52765;DHT22;38650;44.536;18.664;2023-07-31T08:20:43;37.50;50.50
52765;DHT22;38650;44.536;18.664;2023-07-31T08:23:09;37.90;45.40
52765;DHT22;38650;44.536;18.664;2023-07-31T08:25:34;37.60;43.20
52765;DHT22;38650;44.536;18.664;2023-07-31T08:28:00;37.90;44.30
52765;DHT22;38650;44.536;18.664;2023-07-31T08:30:26;38.20;46.20
52765;DHT22;38650;44.536;18.664;2023-07-31T08:32:52;38.20;42.50
52765;DHT22;38650;44.536;18.664;2023-07-31T08:35:17;35.90;42.10
52765;DHT22;38650;44.536;18.664;2023-07-31T08:37:43;34.10;43.30
52765;DHT22;38650;44.536;18.664;2023-07-31T08:40:08;33.40;43.30
52765;DHT22;38650;44.536;18.664;2023-07-31T08:42:34;32.80;44.10
52765;DHT22;38650;44.536;18.664;2023-07-31T08:45:08;32.60;44.80
52765;DHT22;38650;44.536;18.664;2023-07-31T08:47:33;32.40;45.90
52765;DHT22;38650;44.536;18.664;2023-07-31T08:49:59;32.10;46.00
52765;DHT22;38650;44.536;18.664;2023-07-31T08:52:25;32.30;46.60
52765;DHT22;38650;44.536;18.664;2023-07-31T08:54:51;32.60;46.90
52765;DHT22;38650;44.536;18.664;2023-07-31T08:57:16;32.30;46.00
52765;DHT22;38650;44.536;18.664;2023-07-31T08:59:42;32.40;46.50
52765;DHT22;38650;44.536;18.664;2023-07-31T09:02:08;33.20;45.20
52765;DHT22;38650;44.536;18.664;2023-07-31T09:04:34;34.30;43.70
52765;DHT22;38650;44.536;18.664;2023-07-31T09:07:01;35.40;44.60
52765;DHT22;38650;44.536;18.664;2023-07-31T09:09:28;36.40;43.40
52765;DHT22;38650;44.536;18.664;2023-07-31T09:11:54;36.80;39.50
52765;DHT22;38650;44.536;18.664;2023-07-31T09:14:20;36.90;39.30
52765;DHT22;38650;44.536;18.664;2023-07-31T09:16:56;37.00;40.90
52765;DHT22;38650;44.536;18.664;2023-07-31T09:19:34;36.80;40.80
52765;DHT22;38650;44.536;18.664;2023-07-31T09:22:06;37.10;40.30
52765;DHT22;38650;44.536;18.664;2023-07-31T09:24:32;36.90;40.00
52765;DHT22;38650;44.536;18.664;2023-07-31T09:26:59;36.60;39.20
52765;DHT22;38650;44.536;18.664;2023-07-31T09:29:25;36.80;39.70
52765;DHT22;38650;44.536;18.664;2023-07-31T09:31:52;37.10;39.10
52765;DHT22;38650;44.536;18.664;2023-07-31T09:34:18;37.00;39.00
52765;DHT22;38650;44.536;18.664;2023-07-31T09:36:47;37.00;40.70
52765;DHT22;38650;44.536;18.664;2023-07-31T09:39:13;37.40;39.90
52765;DHT22;38650;44.536;18.664;2023-07-31T09:41:40;37.90;37.80
52765;DHT22;38650;44.536;18.664;2023-07-31T09:44:06;37.80;37.10
52765;DHT22;38650;44.536;18.664;2023-07-31T09:46:33;37.80;38.90
52765;DHT22;38650;44.536;18.664;2023-07-31T09:49:12;38.20;38.60
52765;DHT22;38650;44.536;18.664;2023-07-31T09:51:39;38.60;38.90
52765;DHT22;38650;44.536;18.664;2023-07-31T09:56:44;37.00;38.10
52765;DHT22;38650;44.536;18.664;2023-07-31T09:59:14;37.00;37.00
52765;DHT22;38650;44.536;18.664;2023-07-31T10:01:41;37.80;37.90
52765;DHT22;38650;44.536;18.664;2023-07-31T10:04:10;38.10;37.00
52765;DHT22;38650;44.536;18.664;2023-07-31T10:06:36;38.10;37.30
52765;DHT22;38650;44.536;18.664;2023-07-31T10:09:04;38.60;36.70
52765;DHT22;38650;44.536;18.664;2023-07-31T10:11:30;39.00;36.80
52765;DHT22;38650;44.536;18.664;2023-07-31T10:13:58;38.80;36.30
52765;DHT22;38650;44.536;18.664;2023-07-31T10:16:24;38.80;35.80
52765;DHT22;38650;44.536;18.664;2023-07-31T10:18:50;38.90;36.10
52765;DHT22;38650;44.536;18.664;2023-07-31T10:21:17;39.00;36.90
52765;DHT22;38650;44.536;18.664;2023-07-31T10:23:43;38.90;36.20
52765;DHT22;38650;44.536;18.664;2023-07-31T10:26:09;38.80;36.80
52765;DHT22;38650;44.536;18.664;2023-07-31T10:28:35;38.70;35.00
52765;DHT22;38650;44.536;18.664;2023-07-31T10:31:02;38.90;37.10
52765;DHT22;38650;44.536;18.664;2023-07-31T10:33:28;39.10;35.30
52765;DHT22;38650;44.536;18.664;2023-07-31T10:38:58;39.50;32.60
52765;DHT22;38650;44.536;18.664;2023-07-31T10:41:30;39.40;31.60
52765;DHT22;38650;44.536;18.664;2023-07-31T10:43:59;39.20;30.40
52765;DHT22;38650;44.536;18.664;2023-07-31T10:46:25;38.50;29.90
52765;DHT22;38650;44.536;18.664;2023-07-31T10:48:59;38.10;33.70
52765;DHT22;38650;44.536;18.664;2023-07-31T10:51:31;38.20;32.40
52765;DHT22;38650;44.536;18.664;2023-07-31T10:54:10;37.80;34.10
52765;DHT22;38650;44.536;18.664;2023-07-31T10:56:38;38.00;35.50
52765;DHT22;38650;44.536;18.664;2023-07-31T10:59:05;38.40;31.20
52765;DHT22;38650;44.536;18.664;2023-07-31T11:01:53;38.50;30.40
52765;DHT22;38650;44.536;18.664;2023-07-31T11:04:22;38.50;34.20
52765;DHT22;38650;44.536;18.664;2023-07-31T11:06:58;38.70;32.30
52765;DHT22;38650;44.536;18.664;2023-07-31T11:09:27;38.00;31.30
52765;DHT22;38650;44.536;18.664;2023-07-31T11:11:54;37.30;32.20
52765;DHT22;38650;44.536;18.664;2023-07-31T11:14:20;37.60;34.50
52765;DHT22;38650;44.536;18.664;2023-07-31T11:16:46;37.90;33.00
52765;DHT22;38650;44.536;18.664;2023-07-31T11:19:14;37.60;31.80
52765;DHT22;38650;44.536;18.664;2023-07-31T11:21:40;37.80;32.80
52765;DHT22;38650;44.536;18.664;2023-07-31T11:24:05;38.00;33.20
52765;DHT22;38650;44.536;18.664;2023-07-31T11:26:31;37.70;31.80
52765;DHT22;38650;44.536;18.664;2023-07-31T11:28:56;37.80;30.50
52765;DHT22;38650;44.536;18.664;2023-07-31T11:31:22;37.60;29.10
52765;DHT22;38650;44.536;18.664;2023-07-31T11:33:48;37.30;35.90
52765;DHT22;38650;44.536;18.664;2023-07-31T11:36:14;37.70;33.40
52765;DHT22;38650;44.536;18.664;2023-07-31T11:38:40;38.10;30.90
52765;DHT22;38650;44.536;18.664;2023-07-31T11:41:06;38.50;31.50
52765;DHT22;38650;44.536;18.664;2023-07-31T11:43:32;38.60;31.40
52765;DHT22;38650;44.536;18.664;2023-07-31T11:45:58;38.80;31.30
52765;DHT22;38650;44.536;18.664;2023-07-31T11:48:28;38.40;30.30
52765;DHT22;38650;44.536;18.664;2023-07-31T11:50:57;38.20;31.80
52765;DHT22;38650;44.536;18.664;2023-07-31T11:53:30;38.30;31.60
52765;DHT22;38650;44.536;18.664;2023-07-31T11:56:00;38.30;30.20
52765;DHT22;38650;44.536;18.664;2023-07-31T11:58:26;37.70;32.00
52765;DHT22;38650;44.536;18.664;2023-07-31T12:00:52;37.90;29.90
52765;DHT22;38650;44.536;18.664;2023-07-31T12:03:18;38.10;31.70
52765;DHT22;38650;44.536;18.664;2023-07-31T12:05:43;38.10;31.30
52765;DHT22;38650;44.536;18.664;2023-07-31T12:08:10;38.20;34.00
52765;DHT22;38650;44.536;18.664;2023-07-31T12:10:37;37.80;30.60
52765;DHT22;38650;44.536;18.664;2023-07-31T12:13:12;37.80;33.00
52765;DHT22;38650;44.536;18.664;2023-07-31T12:15:45;38.00;32.00
52765;DHT22;38650;44.536;18.664;2023-07-31T12:18:14;38.20;32.10
52765;DHT22;38650;44.536;18.664;2023-07-31T12:20:43;38.10;32.10
52765;DHT22;38650;44.536;18.664;2023-07-31T12:23:19;38.20;31.40
52765;DHT22;38650;44.536;18.664;2023-07-31T12:26:09;38.30;32.90
52765;DHT22;38650;44.536;18.664;2023-07-31T12:31:08;38.00;30.50
52765;DHT22;38650;44.536;18.664;2023-07-31T12:33:35;37.60;30.90
52765;DHT22;38650;44.536;18.664;2023-07-31T12:36:02;37.50;30.40
52765;DHT22;38650;44.536;18.664;2023-07-31T12:38:27;37.20;34.30
52765;DHT22;38650;44.536;18.664;2023-07-31T12:40:53;37.10;32.30
52765;DHT22;38650;44.536;18.664;2023-07-31T12:43:18;37.10;33.90
52765;DHT22;38650;44.536;18.664;2023-07-31T12:45:44;37.30;30.40
52765;DHT22;38650;44.536;18.664;2023-07-31T12:48:10;37.40;32.20
52765;DHT22;38650;44.536;18.664;2023-07-31T12:50:35;37.40;30.40
52765;DHT22;38650;44.536;18.664;2023-07-31T12:53:06;37.30;30.00
52765;DHT22;38650;44.536;18.664;2023-07-31T12:55:32;37.20;32.40
52765;DHT22;38650;44.536;18.664;2023-07-31T12:57:59;37.30;30.90
52765;DHT22;38650;44.536;18.664;2023-07-31T13:00:25;37.30;29.70
52765;DHT22;38650;44.536;18.664;2023-07-31T13:02:51;37.50;32.00
52765;DHT22;38650;44.536;18.664;2023-07-31T13:05:17;37.60;31.00
52765;DHT22;38650;44.536;18.664;2023-07-31T13:07:43;37.80;29.80
52765;DHT22;38650;44.536;18.664;2023-07-31T13:10:08;37.60;31.70
52765;DHT22;38650;44.536;18.664;2023-07-31T13:12:34;37.60;32.00
52765;DHT22;38650;44.536;18.664;2023-07-31T13:15:00;37.60;32.20
52765;DHT22;38650;44.536;18.664;2023-07-31T13:17:25;37.60;33.80
52765;DHT22;38650;44.536;18.664;2023-07-31T13:19:52;37.10;31.30
52765;DHT22;38650;44.536;18.664;2023-07-31T13:22:17;36.60;32.20
52765;DHT22;38650;44.536;18.664;2023-07-31T13:24:43;36.00;31.70
52765;DHT22;38650;44.536;18.664;2023-07-31T13:27:08;35.80;35.60
52765;DHT22;38650;44.536;18.664;2023-07-31T13:29:34;36.10;33.60
52765;DHT22;38650;44.536;18.664;2023-07-31T13:31:59;36.00;32.70
52765;DHT22;38650;44.536;18.664;2023-07-31T13:34:25;35.70;33.80
52765;DHT22;38650;44.536;18.664;2023-07-31T13:36:50;35.50;33.50
52765;DHT22;38650;44.536;18.664;2023-07-31T13:39:16;35.60;34.50
52765;DHT22;38650;44.536;18.664;2023-07-31T13:41:41;35.80;36.50
52765;DHT22;38650;44.536;18.664;2023-07-31T13:44:07;35.90;33.70
52765;DHT22;38650;44.536;18.664;2023-07-31T13:46:33;35.40;32.90
52765;DHT22;38650;44.536;18.664;2023-07-31T13:48:59;35.30;34.40
52765;DHT22;38650;44.536;18.664;2023-07-31T13:51:25;35.20;35.10
52765;DHT22;38650;44.536;18.664;2023-07-31T13:53:50;35.50;32.70
52765;DHT22;38650;44.536;18.664;2023-07-31T13:56:16;35.70;33.20
52765;DHT22;38650;44.536;18.664;2023-07-31T13:58:41;35.90;34.50
52765;DHT22;38650;44.536;18.664;2023-07-31T14:01:07;36.00;33.40
52765;DHT22;38650;44.536;18.664;2023-07-31T14:03:32;36.00;34.80
52765;DHT22;38650;44.536;18.664;2023-07-31T14:05:58;36.00;34.60
52765;DHT22;38650;44.536;18.664;2023-07-31T14:08:23;36.20;34.90
52765;DHT22;38650;44.536;18.664;2023-07-31T14:10:49;36.40;33.60
52765;DHT22;38650;44.536;18.664;2023-07-31T14:13:14;36.60;33.30
52765;DHT22;38650;44.536;18.664;2023-07-31T14:15:43;36.30;34.50
52765;DHT22;38650;44.536;18.664;2023-07-31T14:18:09;36.10;33.90
52765;DHT22;38650;44.536;18.664;2023-07-31T14:20:34;36.10;34.90
52765;DHT22;38650;44.536;18.664;2023-07-31T14:23:00;36.00;34.80
52765;DHT22;38650;44.536;18.664;2023-07-31T14:25:26;35.80;34.30
52765;DHT22;38650;44.536;18.664;2023-07-31T14:27:52;35.50;34.80
52765;DHT22;38650;44.536;18.664;2023-07-31T14:30:17;35.40;34.90
52765;DHT22;38650;44.536;18.664;2023-07-31T14:32:43;35.60;35.60
52765;DHT22;38650;44.536;18.664;2023-07-31T14:35:09;35.70;35.90
52765;DHT22;38650;44.536;18.664;2023-07-31T14:37:38;35.80;31.80
52765;DHT22;38650;44.536;18.664;2023-07-31T14:40:04;35.60;32.60
52765;DHT22;38650;44.536;18.664;2023-07-31T14:42:30;35.70;34.10
52765;DHT22;38650;44.536;18.664;2023-07-31T14:44:55;35.70;32.90
52765;DHT22;38650;44.536;18.664;2023-07-31T14:47:21;35.80;33.50
52765;DHT22;38650;44.536;18.664;2023-07-31T14:49:46;35.60;33.10
52765;DHT22;38650;44.536;18.664;2023-07-31T14:52:12;35.10;33.10
52765;DHT22;38650;44.536;18.664;2023-07-31T14:54:38;35.00;34.20
52765;DHT22;38650;44.536;18.664;2023-07-31T14:57:03;35.00;34.90
52765;DHT22;38650;44.536;18.664;2023-07-31T14:59:29;35.10;34.80
52765;DHT22;38650;44.536;18.664;2023-07-31T15:01:54;35.10;35.50
52765;DHT22;38650;44.536;18.664;2023-07-31T15:04:20;35.10;35.20
52765;DHT22;38650;44.536;18.664;2023-07-31T15:06:47;34.90;33.70
52765;DHT22;38650;44.536;18.664;2023-07-31T15:09:12;34.90;34.40
52765;DHT22;38650;44.536;18.664;2023-07-31T15:11:38;34.80;37.90
52765;DHT22;38650;44.536;18.664;2023-07-31T15:14:04;34.80;36.90
52765;DHT22;38650;44.536;18.664;2023-07-31T15:16:29;34.70;36.10
52765;DHT22;38650;44.536;18.664;2023-07-31T15:18:56;34.60;36.70
52765;DHT22;38650;44.536;18.664;2023-07-31T15:21:22;34.30;35.90
52765;DHT22;38650;44.536;18.664;2023-07-31T15:23:48;34.20;34.90